createdAt,value
2017-10-10T00:30:47.479Z,10.3
2017-10-10T00:33:44.585Z,10.3
2017-10-10T00:35:42.812Z,10.3
2017-10-10T00:36:42.287Z,10.3
2017-10-10T00:38:40.374Z,10.3
2017-10-10T00:39:39.208Z,10.3
2017-10-10T00:41:37.802Z,10.3
2017-10-10T00:45:34.166Z,10.3
2017-10-10T00:47:32.751Z,10.3
2017-10-10T00:48:31.595Z,10.3
2017-10-10T00:49:30.672Z,10.3
2017-10-10T00:50:01.326Z,10.3
2017-10-10T00:53:27.414Z,10.3
2017-10-10T00:55:25.997Z,10.3
2017-10-10T00:57:23.983Z,10.3
2017-10-10T00:58:23.183Z,10.3
2017-10-10T00:59:22.258Z,10.3
2017-10-10T01:00:21.461Z,10.3
2017-10-10T01:03:19.327Z,10.3
2017-10-10T01:04:18.439Z,10.3
2017-10-10T01:05:17.403Z,10.3
2017-10-10T01:07:15.507Z,10.3
2017-10-10T01:08:14.977Z,10.3
2017-10-10T01:10:13.089Z,10.4
2017-10-10T01:11:12.422Z,10.4
2017-10-10T01:12:11.384Z,10.4
2017-10-10T01:14:10.118Z,10.4
2017-10-10T01:15:09.087Z,10.4
2017-10-10T01:20:04.457Z,10.4
2017-10-10T01:22:03.309Z,10.4
2017-10-10T01:24:01.291Z,10.4
2017-10-10T01:25:00.634Z,10.4
2017-10-10T01:30:55.257Z,10.4
2017-10-10T01:31:26.052Z,10.4
2017-10-10T01:32:53.448Z,10.4
2017-10-10T01:35:51.187Z,10.4
2017-10-10T01:36:50.023Z,10.4
2017-10-10T01:38:48.379Z,10.4
2017-10-10T01:44:43.239Z,10.4
2017-10-10T01:46:42.096Z,10.4
2017-10-10T01:47:40.828Z,10.5
2017-10-10T01:48:40.171Z,10.4
2017-10-10T01:49:39.404Z,10.4
2017-10-10T01:50:38.115Z,10.4
2017-10-10T01:51:08.767Z,10.4
2017-10-10T01:54:35.186Z,10.4
2017-10-10T01:55:34.292Z,10.4
2017-10-10T01:56:32.889Z,10.5
2017-10-10T02:00:29.878Z,10.4
2017-10-10T02:01:28.709Z,10.4
2017-10-10T02:02:28.198Z,10.4
2017-10-10T02:03:27.296Z,10.4
2017-10-10T02:06:24.902Z,10.4
2017-10-10T02:07:24.133Z,10.4
2017-10-10T02:09:22.509Z,10.5
2017-10-10T02:10:21.353Z,10.4
2017-10-10T02:11:20.834Z,10.4
2017-10-10T02:14:18.077Z,10.5
2017-10-10T02:16:16.404Z,10.4
2017-10-10T02:17:15.496Z,10.4
2017-10-10T02:18:14.342Z,10.5
2017-10-10T02:21:11.839Z,10.5
2017-10-10T02:22:11.194Z,10.5
2017-10-10T02:23:10.533Z,10.5
2017-10-10T02:24:09.244Z,10.5
2017-10-10T02:26:07.978Z,10.5
2017-10-10T02:27:06.970Z,10.5
2017-10-10T02:29:05.335Z,10.5
2017-10-10T02:32:02.958Z,10.5
2017-10-10T02:33:01.545Z,10.5
2017-10-10T02:35:00.146Z,10.5
2017-10-10T02:35:59.505Z,10.5
2017-10-10T02:37:57.737Z,10.5
2017-10-10T02:39:55.834Z,10.5
2017-10-10T02:40:55.091Z,10.5
2017-10-10T02:43:52.577Z,10.5
2017-10-10T02:45:50.948Z,10.5
2017-10-10T02:50:46.565Z,10.5
2017-10-10T02:52:44.927Z,10.5
2017-10-10T02:54:43.303Z,10.5
2017-10-10T02:55:42.647Z,10.5
2017-10-10T02:56:41.517Z,10.5
2017-10-10T03:00:38.538Z,10.5
2017-10-10T03:01:37.260Z,10.5
2017-10-10T03:02:36.758Z,10.5
2017-10-10T03:03:35.739Z,10.5
2017-10-10T03:04:34.717Z,10.5
2017-10-10T03:05:34.200Z,10.5
2017-10-10T03:06:33.046Z,10.5
2017-10-10T03:12:28.146Z,10.6
2017-10-10T03:13:27.366Z,10.6
2017-10-10T03:15:25.468Z,10.6
2017-10-10T03:19:22.248Z,10.6
2017-10-10T03:28:14.408Z,10.6
2017-10-10T03:35:08.568Z,10.6
2017-10-10T03:41:03.711Z,10.5
2017-10-10T03:47:57.598Z,10.6
2017-10-10T03:49:55.988Z,10.6
2017-10-10T03:50:54.841Z,10.6
2017-10-10T03:53:52.459Z,10.6
2017-10-10T04:01:45.993Z,10.6
2017-10-10T04:07:40.631Z,10.6
2017-10-10T04:30:21.294Z,10.6
2017-10-10T04:31:20.658Z,10.6
2017-10-10T04:32:19.371Z,10.6
2017-10-10T04:40:12.644Z,10.6
2017-10-10T04:43:10.394Z,10.6
2017-10-10T04:50:04.414Z,10.6
2017-10-10T04:51:03.267Z,10.6
2017-10-10T04:52:02.994Z,10.6
2017-10-10T04:53:01.978Z,10.6
2017-10-10T04:55:00.081Z,10.6
2017-10-10T04:56:58.178Z,10.6
2017-10-10T04:57:57.525Z,10.6
2017-10-10T05:02:53.275Z,10.6
2017-10-10T05:03:52.620Z,10.6
2017-10-10T05:04:51.463Z,10.6
2017-10-10T05:05:50.675Z,10.6
2017-10-10T05:06:49.759Z,10.6
2017-10-10T05:07:49.249Z,10.6
2017-10-10T05:08:48.462Z,10.6
2017-10-10T05:09:47.172Z,10.6
2017-10-10T05:10:46.400Z,10.6
2017-10-10T05:11:45.888Z,10.6
2017-10-10T05:12:44.737Z,10.6
2017-10-10T05:13:43.853Z,10.6
2017-10-10T05:14:42.932Z,10.6
2017-10-10T05:15:42.648Z,10.6
2017-10-10T05:16:41.227Z,10.6
2017-10-10T05:17:41.074Z,10.6
2017-10-10T05:18:40.054Z,10.6
2017-10-10T05:19:38.772Z,10.6
2017-10-10T05:20:38.118Z,10.6
2017-10-10T05:21:37.339Z,10.6
2017-10-10T05:22:36.692Z,10.6
2017-10-10T05:23:35.667Z,10.6
2017-10-10T05:24:35.041Z,10.6
2017-10-10T05:25:33.901Z,10.6
2017-10-10T05:26:33.130Z,10.6
2017-10-10T05:27:32.228Z,10.6
2017-10-10T05:28:31.216Z,10.6
2017-10-10T05:31:28.937Z,10.6
2017-10-10T05:32:28.057Z,10.6
2017-10-10T05:33:27.034Z,10.6
2017-10-10T05:34:26.552Z,10.6
2017-10-10T05:35:25.266Z,10.7
2017-10-10T05:36:24.358Z,10.6
2017-10-10T05:37:23.451Z,10.6
2017-10-10T05:38:23.065Z,10.6
2017-10-10T05:39:22.279Z,10.7
2017-10-10T05:40:21.126Z,10.7
2017-10-10T05:41:20.603Z,10.7
2017-10-10T05:42:19.442Z,10.7
2017-10-10T05:44:17.670Z,10.7
2017-10-10T05:46:16.267Z,10.6
2017-10-10T05:48:14.869Z,10.7
2017-10-10T05:49:13.850Z,10.7
2017-10-10T05:50:12.871Z,10.7
2017-10-10T05:51:11.982Z,10.7
2017-10-10T05:52:10.828Z,10.7
2017-10-10T05:55:08.447Z,10.7
2017-10-10T05:56:08.056Z,10.7
2017-10-10T05:57:06.764Z,10.7
2017-10-10T05:58:06.117Z,10.7
2017-10-10T05:59:05.340Z,10.7
2017-10-10T06:00:04.192Z,10.8
2017-10-10T06:01:03.273Z,10.8
2017-10-10T06:04:00.762Z,10.8
2017-10-10T06:04:59.994Z,10.8
2017-10-10T06:05:59.348Z,10.8
2017-10-10T06:06:58.334Z,10.8
2017-10-10T06:08:57.071Z,10.8
2017-10-10T06:09:55.789Z,10.8
2017-10-10T06:10:55.009Z,10.8
2017-10-10T06:11:54.494Z,10.9
2017-10-10T06:12:53.467Z,10.9
2017-10-10T06:13:52.321Z,10.9
2017-10-10T06:14:51.403Z,10.9
2017-10-10T06:15:50.613Z,10.9
2017-10-10T06:16:49.824Z,10.9
2017-10-10T06:17:49.166Z,10.9
2017-10-10T06:18:48.156Z,10.9
2017-10-10T06:19:47.764Z,10.9
2017-10-10T06:20:46.621Z,10.9
2017-10-10T06:21:45.845Z,10.9
2017-10-10T06:22:45.753Z,10.9
2017-10-10T06:23:44.222Z,10.9
2017-10-10T06:25:42.590Z,10.9
2017-10-10T06:26:41.334Z,10.9
2017-10-10T06:27:40.436Z,10.9
2017-10-10T06:28:40.166Z,10.9
2017-10-10T06:29:39.383Z,10.9
2017-10-10T06:31:37.350Z,10.9
2017-10-10T06:33:35.453Z,10.9
2017-10-10T06:34:35.057Z,10.9
2017-10-10T06:36:33.022Z,10.9
2017-10-10T06:37:32.618Z,10.9
2017-10-10T06:38:31.327Z,10.9
2017-10-10T06:39:30.544Z,10.9
2017-10-10T06:40:30.020Z,10.9
2017-10-10T06:41:28.872Z,10.9
2017-10-10T06:42:28.225Z,11
2017-10-10T06:43:27.699Z,11
2017-10-10T06:44:26.182Z,11
2017-10-10T06:45:25.666Z,11
2017-10-10T06:46:24.771Z,11
2017-10-10T06:47:23.855Z,11
2017-10-10T06:48:23.206Z,11
2017-10-10T06:49:22.051Z,11
2017-10-10T06:50:21.531Z,11
2017-10-10T06:53:19.012Z,11
2017-10-10T06:54:17.989Z,11
2017-10-10T06:55:17.336Z,11
2017-10-10T06:56:16.318Z,11
2017-10-10T06:57:15.661Z,11
2017-10-10T06:58:14.749Z,11
2017-10-10T06:59:13.704Z,11.1
2017-10-10T07:00:12.786Z,11
2017-10-10T07:02:11.391Z,11.1
2017-10-10T07:04:09.624Z,11.1
2017-10-10T07:05:08.608Z,11.1
2017-10-10T07:06:08.196Z,11.1
2017-10-10T07:07:07.179Z,11.1
2017-10-10T07:09:05.278Z,11.2
2017-10-10T07:10:04.867Z,11.2
2017-10-10T07:11:03.713Z,11.1
2017-10-10T07:13:02.308Z,11.2
2017-10-10T07:14:01.151Z,11.2
2017-10-10T07:15:00.636Z,11.2
2017-10-10T07:15:59.613Z,11.2
2017-10-10T07:16:29.772Z,11.2
2017-10-10T07:18:57.332Z,11.2
2017-10-10T07:21:54.689Z,11.2
2017-10-10T07:22:54.034Z,11.2
2017-10-10T07:24:52.027Z,11.3
2017-10-10T07:26:50.630Z,11.3
2017-10-10T07:27:21.048Z,11.3
2017-10-10T07:27:51.069Z,11.3
2017-10-10T07:28:21.768Z,11.3
2017-10-10T07:29:48.056Z,11.3
2017-10-10T07:30:46.902Z,11.3
2017-10-10T07:31:46.258Z,11.3
2017-10-10T07:32:45.240Z,11.3
2017-10-10T07:34:43.980Z,11.3
2017-10-10T07:35:42.828Z,11.3
2017-10-10T07:36:42.453Z,11.3
2017-10-10T07:39:39.303Z,11.3
2017-10-10T07:40:38.659Z,11.3
2017-10-10T07:41:37.868Z,11.3
2017-10-10T07:43:36.098Z,11.4
2017-10-10T07:44:35.324Z,11.4
2017-10-10T07:45:34.802Z,11.4
2017-10-10T07:46:33.885Z,11.5
2017-10-10T07:47:33.091Z,11.5
2017-10-10T07:49:31.321Z,11.6
2017-10-10T07:50:30.318Z,11.6
2017-10-10T07:51:29.540Z,11.6
2017-10-10T07:53:27.767Z,11.6
2017-10-10T07:54:27.122Z,11.7
2017-10-10T07:55:26.336Z,11.7
2017-10-10T07:56:25.062Z,11.7
2017-10-10T07:57:24.408Z,11.7
2017-10-10T07:58:23.495Z,11.7
2017-10-10T07:58:53.906Z,11.7
2017-10-10T07:59:24.299Z,11.7
2017-10-10T07:59:54.960Z,11.7
2017-10-10T08:01:21.237Z,11.7
2017-10-10T08:02:20.318Z,11.7
2017-10-10T08:03:19.809Z,11.7
2017-10-10T08:04:18.659Z,11.7
2017-10-10T08:05:17.611Z,11.7
2017-10-10T08:06:16.964Z,11.7
2017-10-10T08:07:16.316Z,11.7
2017-10-10T08:08:15.445Z,11.8
2017-10-10T08:09:14.399Z,11.8
2017-10-10T08:09:45.212Z,11.8
2017-10-10T08:10:15.769Z,11.8
2017-10-10T08:10:46.420Z,11.8
2017-10-10T08:11:16.947Z,11.8
2017-10-10T08:12:12.003Z,11.8
2017-10-10T08:13:11.615Z,11.8
2017-10-10T08:14:10.592Z,11.8
2017-10-10T08:15:09.434Z,11.9
2017-10-10T08:16:08.785Z,11.9
2017-10-10T08:17:07.887Z,11.9
2017-10-10T08:18:07.238Z,11.9
2017-10-10T08:19:06.363Z,11.9
2017-10-10T08:20:05.854Z,11.9
2017-10-10T08:21:04.693Z,11.9
2017-10-10T08:22:04.043Z,11.9
2017-10-10T08:23:03.393Z,11.9
2017-10-10T08:25:01.591Z,11.9
2017-10-10T08:26:00.831Z,11.9
2017-10-10T08:27:58.556Z,11.9
2017-10-10T08:28:58.270Z,11.9
2017-10-10T08:29:57.115Z,12
2017-10-10T08:30:56.194Z,11.9
2017-10-10T08:31:55.534Z,12
2017-10-10T08:32:54.748Z,11.9
2017-10-10T08:33:54.239Z,11.9
2017-10-10T08:34:53.215Z,11.9
2017-10-10T08:35:52.192Z,11.9
2017-10-10T08:36:51.672Z,11.9
2017-10-10T08:37:50.380Z,11.9
2017-10-10T08:38:49.999Z,11.9
2017-10-10T08:39:49.346Z,11.9
2017-10-10T08:41:47.307Z,12
2017-10-10T08:42:46.654Z,12
2017-10-10T08:43:45.631Z,12
2017-10-10T08:44:44.978Z,12
2017-10-10T08:45:44.331Z,12
2017-10-10T08:46:43.181Z,12
2017-10-10T08:49:40.798Z,12
2017-10-10T08:50:39.903Z,12
2017-10-10T08:51:39.512Z,12
2017-10-10T08:52:38.496Z,12
2017-10-10T08:53:37.345Z,12.1
2017-10-10T08:54:36.558Z,12.1
2017-10-10T08:55:36.275Z,12.1
2017-10-10T08:56:34.855Z,12.1
2017-10-10T08:57:34.074Z,12.1
2017-10-10T08:58:33.427Z,12.1
2017-10-10T09:00:31.659Z,12.1
2017-10-10T09:01:31.139Z,12.1
2017-10-10T09:02:29.991Z,12.1
2017-10-10T09:03:29.070Z,12.1
2017-10-10T09:04:28.639Z,12.2
2017-10-10T09:05:27.881Z,12.2
2017-10-10T09:06:26.961Z,12.2
2017-10-10T09:07:26.199Z,12.2
2017-10-10T09:08:24.907Z,12.2
2017-10-10T09:09:24.493Z,12.3
2017-10-10T09:11:22.730Z,12.3
2017-10-10T09:12:21.942Z,12.3
2017-10-10T09:13:21.426Z,12.3
2017-10-10T09:14:20.423Z,12.3
2017-10-10T09:15:19.902Z,12.4
2017-10-10T09:16:18.551Z,12.4
2017-10-10T09:17:18.139Z,12.4
2017-10-10T09:18:17.357Z,12.4
2017-10-10T09:19:15.939Z,12.4
2017-10-10T09:20:15.295Z,12.5
2017-10-10T09:21:14.509Z,12.5
2017-10-10T09:22:13.863Z,12.5
2017-10-10T09:23:12.849Z,12.5
2017-10-10T09:24:12.062Z,12.5
2017-10-10T09:25:11.153Z,12.5
2017-10-10T09:26:10.645Z,12.5
2017-10-10T09:27:09.892Z,12.5
2017-10-10T09:28:08.868Z,12.5
2017-10-10T09:29:08.217Z,12.5
2017-10-10T09:30:07.329Z,12.5
2017-10-10T09:31:06.545Z,12.5
2017-10-10T09:32:05.522Z,12.5
2017-10-10T09:33:04.869Z,12.5
2017-10-10T09:34:03.813Z,12.5
2017-10-10T09:35:03.339Z,12.5
2017-10-10T09:36:02.832Z,12.5
2017-10-10T09:36:33.358Z,12.5
2017-10-10T09:37:03.754Z,12.5
2017-10-10T09:38:00.861Z,12.5
2017-10-10T09:38:59.836Z,12.5
2017-10-10T09:39:59.060Z,12.6
2017-10-10T09:40:58.550Z,12.6
2017-10-10T09:41:57.531Z,12.6
2017-10-10T09:42:56.753Z,12.6
2017-10-10T09:44:54.867Z,12.7
2017-10-10T09:45:54.727Z,12.7
2017-10-10T09:46:25.019Z,12.7
2017-10-10T09:46:55.563Z,12.7
2017-10-10T09:47:26.359Z,12.7
2017-10-10T09:49:51.152Z,12.8
2017-10-10T09:50:21.173Z,12.8
2017-10-10T09:50:51.839Z,12.8
2017-10-10T09:51:49.310Z,12.8
2017-10-10T09:52:48.951Z,12.9
2017-10-10T09:54:46.780Z,12.9
2017-10-10T09:55:46.497Z,13
2017-10-10T09:56:45.852Z,13
2017-10-10T09:57:44.702Z,13
2017-10-10T09:58:43.933Z,13
2017-10-10T09:59:43.279Z,13
2017-10-10T10:00:42.270Z,13.1
2017-10-10T10:01:41.259Z,13.1
2017-10-10T10:02:40.471Z,13.2
2017-10-10T10:03:40.092Z,13.2
2017-10-10T10:04:39.348Z,13.2
2017-10-10T10:05:37.927Z,13.2
2017-10-10T10:06:37.275Z,13.3
2017-10-10T10:07:36.638Z,13.3
2017-10-10T10:08:35.619Z,13.3
2017-10-10T10:09:34.832Z,13.3
2017-10-10T10:10:34.286Z,13.3
2017-10-10T10:11:33.499Z,13.3
2017-10-10T10:12:32.860Z,13.3
2017-10-10T10:13:31.844Z,13.4
2017-10-10T10:14:30.928Z,13.4
2017-10-10T10:15:30.405Z,13.4
2017-10-10T10:16:29.394Z,13.4
2017-10-10T10:17:28.611Z,13.4
2017-10-10T10:17:59.167Z,13.4
2017-10-10T10:18:29.190Z,13.5
2017-10-10T10:19:27.058Z,13.5
2017-10-10T10:20:26.150Z,13.5
2017-10-10T10:21:25.761Z,13.5
2017-10-10T10:22:24.464Z,13.6
2017-10-10T10:23:23.953Z,13.6
2017-10-10T10:24:22.664Z,13.6
2017-10-10T10:26:21.666Z,13.7
2017-10-10T10:27:20.656Z,13.7
2017-10-10T10:28:20.005Z,13.8
2017-10-10T10:28:50.427Z,13.8
2017-10-10T10:29:20.865Z,13.8
2017-10-10T10:29:51.263Z,13.8
2017-10-10T10:30:21.573Z,13.8
2017-10-10T10:30:52.365Z,13.8
2017-10-10T10:32:16.480Z,13.9
2017-10-10T10:33:15.704Z,13.9
2017-10-10T10:34:14.791Z,14
2017-10-10T10:35:14.013Z,14
2017-10-10T10:36:13.358Z,14
2017-10-10T10:37:12.842Z,14
2017-10-10T10:38:12.055Z,14
2017-10-10T10:39:10.777Z,14.1
2017-10-10T10:39:41.566Z,14.1
2017-10-10T10:40:11.863Z,14.1
2017-10-10T10:40:42.291Z,14.1
2017-10-10T10:41:12.722Z,14.1
2017-10-10T10:41:43.117Z,14.1
2017-10-10T10:43:07.865Z,14.1
2017-10-10T10:44:07.076Z,14.1
2017-10-10T10:45:06.303Z,14.1
2017-10-10T10:46:05.666Z,14.1
2017-10-10T10:47:05.150Z,14.1
2017-10-10T10:48:03.995Z,14.2
2017-10-10T10:49:03.362Z,14.1
2017-10-10T10:50:02.229Z,14.1
2017-10-10T10:51:01.853Z,14.1
2017-10-10T10:52:00.732Z,14.1
2017-10-10T10:53:00.085Z,14.1
2017-10-10T10:53:59.436Z,14.1
2017-10-10T10:54:58.647Z,14
2017-10-10T10:56:57.012Z,14.1
2017-10-10T10:57:55.998Z,14
2017-10-10T10:58:55.234Z,14
2017-10-10T10:59:54.581Z,14
2017-10-10T11:00:54.062Z,14
2017-10-10T11:02:52.300Z,14.1
2017-10-10T11:04:50.669Z,14.1
2017-10-10T11:05:50.157Z,14.1
2017-10-10T11:06:49.237Z,14.1
2017-10-10T11:08:47.602Z,14.1
2017-10-10T11:09:46.826Z,14.1
2017-10-10T11:11:45.434Z,14.1
2017-10-10T11:12:44.662Z,14.1
2017-10-10T11:13:43.511Z,14.1
2017-10-10T11:15:41.739Z,14
2017-10-10T11:16:41.466Z,14
2017-10-10T11:17:40.814Z,14
2017-10-10T11:18:39.927Z,14
2017-10-10T11:19:38.779Z,14
2017-10-10T11:20:38.130Z,14.1
2017-10-10T11:21:37.102Z,14.1
2017-10-10T11:22:36.317Z,14.1
2017-10-10T11:23:35.800Z,14.1
2017-10-10T11:24:35.022Z,14
2017-10-10T11:25:34.131Z,14
2017-10-10T11:26:33.345Z,14
2017-10-10T11:28:31.576Z,14
2017-10-10T11:29:31.169Z,14.1
2017-10-10T11:30:30.652Z,14.1
2017-10-10T11:31:29.880Z,14.1
2017-10-10T11:32:28.885Z,14.2
2017-10-10T11:33:27.737Z,14.2
2017-10-10T11:35:26.479Z,14.2
2017-10-10T11:36:25.961Z,14.2
2017-10-10T11:37:24.934Z,14.2
2017-10-10T11:38:24.174Z,14.2
2017-10-10T11:39:23.388Z,14.2
2017-10-10T11:41:22.132Z,14.2
2017-10-10T11:42:21.215Z,14.2
2017-10-10T11:43:20.062Z,14.2
2017-10-10T11:44:19.413Z,14.2
2017-10-10T11:45:18.890Z,14.2
2017-10-10T11:46:17.749Z,14.2
2017-10-10T11:47:17.098Z,14.2
2017-10-10T11:48:16.322Z,14.2
2017-10-10T11:49:15.684Z,14.2
2017-10-10T11:50:14.393Z,14.2
2017-10-10T11:52:13.133Z,14.1
2017-10-10T11:53:12.345Z,14.1
2017-10-10T11:54:11.571Z,14.1
2017-10-10T11:55:10.929Z,14
2017-10-10T11:56:10.291Z,14
2017-10-10T11:57:09.503Z,14
2017-10-10T11:58:08.488Z,14
2017-10-10T11:59:07.848Z,14
2017-10-10T12:00:06.982Z,14
2017-10-10T12:02:05.646Z,14.1
2017-10-10T12:03:04.544Z,14.1
2017-10-10T12:04:03.776Z,14.1
2017-10-10T12:06:02.426Z,14.1
2017-10-10T12:06:32.953Z,14.1
2017-10-10T12:07:03.631Z,14.2
2017-10-10T12:07:34.430Z,14.2
2017-10-10T12:09:00.084Z,14.2
2017-10-10T12:09:59.436Z,14.2
2017-10-10T12:10:58.652Z,14.2
2017-10-10T12:11:57.505Z,14.1
2017-10-10T12:12:56.726Z,14.1
2017-10-10T12:13:56.207Z,14.1
2017-10-10T12:14:55.422Z,14.1
2017-10-10T12:15:54.532Z,14.1
2017-10-10T12:16:53.617Z,14.1
2017-10-10T12:17:24.277Z,14.1
2017-10-10T12:17:54.546Z,14
2017-10-10T12:18:25.205Z,14
2017-10-10T12:19:51.741Z,14
2017-10-10T12:20:50.454Z,14
2017-10-10T12:21:49.796Z,14
2017-10-10T12:22:49.140Z,14
2017-10-10T12:23:48.619Z,13.9
2017-10-10T12:24:47.619Z,13.9
2017-10-10T12:25:46.971Z,13.9
2017-10-10T12:26:45.809Z,13.9
2017-10-10T12:27:45.258Z,13.9
2017-10-10T12:28:44.601Z,13.9
2017-10-10T12:29:43.569Z,13.9
2017-10-10T12:30:42.789Z,13.8
2017-10-10T12:31:42.137Z,13.8
2017-10-10T12:32:41.500Z,13.8
2017-10-10T12:33:40.214Z,13.8
2017-10-10T12:34:39.799Z,13.7
2017-10-10T12:35:38.764Z,13.8
2017-10-10T12:37:37.120Z,13.7
2017-10-10T12:38:36.707Z,13.7
2017-10-10T12:39:36.060Z,13.7
2017-10-10T12:40:35.038Z,13.7
2017-10-10T12:41:34.665Z,13.6
2017-10-10T12:42:33.640Z,13.6
2017-10-10T12:43:32.773Z,13.6
2017-10-10T12:44:31.990Z,13.5
2017-10-10T12:45:31.208Z,13.5
2017-10-10T12:46:30.226Z,13.5
2017-10-10T12:47:29.833Z,13.5
2017-10-10T12:48:28.683Z,13.5
2017-10-10T12:49:28.168Z,13.5
2017-10-10T12:50:27.261Z,13.4
2017-10-10T12:50:58.061Z,13.4
2017-10-10T12:52:25.963Z,13.4
2017-10-10T12:53:24.808Z,13.4
2017-10-10T12:54:24.021Z,13.4
2017-10-10T12:55:23.509Z,13.3
2017-10-10T12:56:22.484Z,13.3
2017-10-10T12:57:22.071Z,13.3
2017-10-10T12:58:20.787Z,13.3
2017-10-10T12:59:20.149Z,13.3
2017-10-10T13:00:19.370Z,13.3
2017-10-10T13:01:18.592Z,13.2
2017-10-10T13:01:49.128Z,13.2
2017-10-10T13:02:19.790Z,13.2
2017-10-10T13:03:17.258Z,13.2
2017-10-10T13:04:16.366Z,13.2
2017-10-10T13:05:15.620Z,13.2
2017-10-10T13:06:14.607Z,13.2
2017-10-10T13:07:13.958Z,13.2
2017-10-10T13:08:13.041Z,13.1
2017-10-10T13:09:12.387Z,13.1
2017-10-10T13:10:11.873Z,13.1
2017-10-10T13:11:10.594Z,13.1
2017-10-10T13:12:09.946Z,13.1
2017-10-10T13:14:08.311Z,13.1
2017-10-10T13:15:07.532Z,13.1
2017-10-10T13:18:05.151Z,13.1
2017-10-10T13:19:04.775Z,13.1
2017-10-10T13:20:03.617Z,13.1
2017-10-10T13:21:03.094Z,13.1
2017-10-10T13:22:02.194Z,13.1
2017-10-10T13:23:01.537Z,13.1
2017-10-10T13:24:00.525Z,13
2017-10-10T13:25:00.009Z,13
2017-10-10T13:25:59.361Z,13
2017-10-10T13:26:58.213Z,13
2017-10-10T13:27:57.062Z,13.1
2017-10-10T13:28:56.819Z,13.1
2017-10-10T13:29:56.070Z,13.1
2017-10-10T13:30:54.921Z,13.1
2017-10-10T13:31:54.153Z,13.1
2017-10-10T13:32:53.541Z,13.1
2017-10-10T13:33:52.756Z,13.1
2017-10-10T13:34:52.111Z,13.1
2017-10-10T13:35:51.198Z,13.1
2017-10-10T13:36:50.047Z,13.1
2017-10-10T13:37:49.903Z,13.1
2017-10-10T13:38:48.680Z,13.1
2017-10-10T13:39:48.302Z,13.1
2017-10-10T13:40:47.263Z,13.1
2017-10-10T13:42:45.368Z,13.1
2017-10-10T13:43:44.732Z,13.2
2017-10-10T13:44:44.085Z,13.2
2017-10-10T13:45:43.198Z,13.2
2017-10-10T13:46:42.582Z,13.2
2017-10-10T13:47:41.819Z,13.2
2017-10-10T13:48:41.177Z,13.2
2017-10-10T13:49:40.016Z,13.2
2017-10-10T13:50:39.369Z,13.3
2017-10-10T13:51:38.585Z,13.3
2017-10-10T13:52:37.806Z,13.3
2017-10-10T13:53:36.651Z,13.3
2017-10-10T13:54:36.129Z,13.4
2017-10-10T13:55:35.344Z,13.4
2017-10-10T13:56:34.691Z,13.4
2017-10-10T13:57:33.546Z,13.4
2017-10-10T13:58:32.901Z,13.4
2017-10-10T13:59:31.994Z,13.4
2017-10-10T14:00:02.783Z,13.4
2017-10-10T14:00:33.188Z,13.4
2017-10-10T14:01:03.722Z,13.4
2017-10-10T14:01:33.877Z,13.4
2017-10-10T14:02:29.938Z,13.4
2017-10-10T14:04:28.037Z,13.4
2017-10-10T14:05:27.172Z,13.4
2017-10-10T14:06:26.531Z,13.4
2017-10-10T14:07:25.881Z,13.4
2017-10-10T14:08:25.224Z,13.4
2017-10-10T14:09:24.199Z,13.4
2017-10-10T14:11:22.431Z,13.5
2017-10-10T14:12:21.921Z,13.5
2017-10-10T14:13:21.278Z,13.5
2017-10-10T14:14:20.137Z,13.5
2017-10-10T14:15:19.364Z,13.5
2017-10-10T14:16:18.723Z,13.5
2017-10-10T14:17:18.075Z,13.5
2017-10-10T14:18:17.197Z,13.5
2017-10-10T14:19:16.423Z,13.5
2017-10-10T14:20:15.517Z,13.5
2017-10-10T14:21:14.774Z,13.5
2017-10-10T14:22:13.724Z,13.5
2017-10-10T14:23:13.075Z,13.5
2017-10-10T14:24:12.552Z,13.5
2017-10-10T14:25:11.404Z,13.5
2017-10-10T14:26:10.487Z,13.5
2017-10-10T14:27:10.203Z,13.5
2017-10-10T14:28:09.190Z,13.5
2017-10-10T14:29:08.674Z,13.5
2017-10-10T14:30:08.048Z,13.5
2017-10-10T14:31:06.765Z,13.5
2017-10-10T14:32:05.988Z,13.5
2017-10-10T14:33:05.475Z,13.5
2017-10-10T14:34:04.690Z,13.5
2017-10-10T14:35:03.681Z,13.6
2017-10-10T14:36:03.163Z,13.6
2017-10-10T14:37:02.007Z,13.6
2017-10-10T14:38:01.372Z,13.7
2017-10-10T14:39:00.346Z,13.7
2017-10-10T14:40:58.838Z,13.6
2017-10-10T14:46:54.383Z,13.6
2017-10-10T14:47:53.352Z,13.6
2017-10-10T14:49:51.737Z,13.7
2017-10-10T14:50:51.392Z,13.7
2017-10-10T14:51:50.237Z,13.7
2017-10-10T14:52:49.315Z,13.7
2017-10-10T14:56:46.453Z,13.8
2017-10-10T14:57:45.674Z,13.8
2017-10-10T14:58:45.161Z,13.9
2017-10-10T15:01:42.645Z,14
2017-10-10T15:02:41.626Z,14
2017-10-10T15:03:40.986Z,14
2017-10-10T15:04:39.852Z,14
2017-10-10T15:05:39.336Z,14
2017-10-10T15:06:38.313Z,14
2017-10-10T15:07:37.652Z,14
2017-10-10T15:09:35.887Z,14
2017-10-10T15:21:26.707Z,13.9
2017-10-10T15:23:24.942Z,13.9
2017-10-10T15:24:24.169Z,13.9
2017-10-10T15:25:23.514Z,13.9
2017-10-10T15:26:22.740Z,13.9
2017-10-10T15:27:21.698Z,13.9
2017-10-10T15:28:21.052Z,13.9
2017-10-10T15:29:20.285Z,13.9
2017-10-10T15:30:19.628Z,13.9
2017-10-10T15:31:18.841Z,13.9
2017-10-10T15:32:17.929Z,13.8
2017-10-10T15:33:17.542Z,13.8
2017-10-10T15:34:16.393Z,13.8
2017-10-10T15:35:15.849Z,13.8
2017-10-10T15:36:15.070Z,13.8
2017-10-10T15:37:14.288Z,13.8
2017-10-10T15:38:13.637Z,13.8
2017-10-10T15:39:12.989Z,13.8
2017-10-10T15:41:11.224Z,13.8
2017-10-10T15:42:10.204Z,13.8
2017-10-10T15:43:09.551Z,13.8
2017-10-10T15:45:07.915Z,13.7
2017-10-10T15:46:08.213Z,13.7
2017-10-10T15:47:06.327Z,13.7
2017-10-10T15:48:05.318Z,13.6
2017-10-10T15:49:04.540Z,13.6
2017-10-10T15:50:03.903Z,13.6
2017-10-10T15:51:02.890Z,13.6
2017-10-10T15:52:02.241Z,13.6
2017-10-10T15:53:01.611Z,13.5
2017-10-10T15:54:00.965Z,13.5
2017-10-10T15:54:59.816Z,13.5
2017-10-10T15:55:59.044Z,13.5
2017-10-10T15:56:58.268Z,13.5
2017-10-10T15:57:57.622Z,13.5
2017-10-10T15:58:56.831Z,13.5
2017-10-10T15:59:56.312Z,13.5
2017-10-10T16:00:55.281Z,13.5
2017-10-10T16:01:54.509Z,13.5
2017-10-10T16:02:53.989Z,13.5
2017-10-10T16:03:52.840Z,13.4
2017-10-10T16:04:52.454Z,13.4
2017-10-10T16:05:51.800Z,13.4
2017-10-10T16:06:50.529Z,13.4
2017-10-10T16:07:49.761Z,13.4
2017-10-10T16:08:48.861Z,13.4
2017-10-10T16:09:48.081Z,13.4
2017-10-10T16:10:47.165Z,13.4
2017-10-10T16:11:17.825Z,13.4
2017-10-10T16:13:45.124Z,13.3
2017-10-10T16:14:44.476Z,13.3
2017-10-10T16:15:43.329Z,13.4
2017-10-10T16:16:42.676Z,13.4
2017-10-10T16:17:42.025Z,13.3
2017-10-10T16:18:41.511Z,13.4
2017-10-10T16:19:40.433Z,13.4
2017-10-10T16:20:39.537Z,13.3
2017-10-10T16:21:38.756Z,13.3
2017-10-10T16:23:37.253Z,13.4
2017-10-10T16:24:36.090Z,13.4
2017-10-10T16:25:35.316Z,13.4
2017-10-10T16:26:34.793Z,13.4
2017-10-10T16:28:33.292Z,13.4
2017-10-10T16:29:04.095Z,13.4
2017-10-10T16:29:34.622Z,13.4
2017-10-10T16:30:04.786Z,13.4
2017-10-10T16:30:35.447Z,13.3
2017-10-10T16:31:05.746Z,13.3
2017-10-10T16:32:30.274Z,13.4
2017-10-10T16:33:28.985Z,13.4
2017-10-10T16:34:28.201Z,13.4
2017-10-10T16:35:27.427Z,13.4
2017-10-10T16:36:26.777Z,13.4
2017-10-10T16:37:25.994Z,13.4
2017-10-10T16:38:25.350Z,13.3
2017-10-10T16:39:24.439Z,13.4
2017-10-10T16:40:23.654Z,13.4
2017-10-10T16:41:23.015Z,13.3
2017-10-10T16:42:22.093Z,13.4
2017-10-10T16:43:21.610Z,13.3
2017-10-10T16:44:20.834Z,13.3
2017-10-10T16:45:19.551Z,13.4
2017-10-10T16:46:18.765Z,13.4
2017-10-10T16:47:18.250Z,13.4
2017-10-10T16:48:17.368Z,13.4
2017-10-10T16:49:16.582Z,13.4
2017-10-10T16:50:15.936Z,13.4
2017-10-10T16:51:15.018Z,13.3
2017-10-10T16:52:14.134Z,13.3
2017-10-10T16:53:13.350Z,13.3
2017-10-10T16:54:12.561Z,13.3
2017-10-10T16:55:11.912Z,13.3
2017-10-10T16:56:11.261Z,13.3
2017-10-10T16:57:09.986Z,13.3
2017-10-10T16:58:09.576Z,13.3
2017-10-10T16:59:08.794Z,13.3
2017-10-10T17:00:08.285Z,13.3
2017-10-10T17:01:06.999Z,13.3
2017-10-10T17:02:06.498Z,13.3
2017-10-10T17:03:05.348Z,13.3
2017-10-10T17:04:04.824Z,13.2
2017-10-10T17:05:03.906Z,13.2
2017-10-10T17:06:03.281Z,13.2
2017-10-10T17:07:02.494Z,13.2
2017-10-10T17:08:01.586Z,13.2
2017-10-10T17:09:00.807Z,13.2
2017-10-10T17:10:00.155Z,13.2
2017-10-10T17:10:59.133Z,13.2
2017-10-10T17:11:29.537Z,13.2
2017-10-10T17:12:57.304Z,13.2
2017-10-10T17:13:57.025Z,13.2
2017-10-10T17:14:56.109Z,13.2
2017-10-10T17:15:55.464Z,13.2
2017-10-10T17:16:54.813Z,13.2
2017-10-10T17:17:53.527Z,13.2
2017-10-10T17:18:52.738Z,13.2
2017-10-10T17:19:52.083Z,13.2
2017-10-10T17:20:51.309Z,13.2
2017-10-10T17:21:50.542Z,13.2
2017-10-10T17:22:20.939Z,13.2
2017-10-10T17:22:51.467Z,13.2
2017-10-10T17:23:21.638Z,13.2
2017-10-10T17:23:52.530Z,13.2
2017-10-10T17:24:48.362Z,13.2
2017-10-10T17:25:47.584Z,13.2
2017-10-10T17:26:46.533Z,13.2
2017-10-10T17:27:45.887Z,13.2
2017-10-10T17:28:45.235Z,13.2
2017-10-10T17:29:44.220Z,13.2
2017-10-10T17:30:43.438Z,13.2
2017-10-10T17:31:42.649Z,13.3